sensor_id;sensor_type;location;lat;lon;timestamp;P1;durP1;ratioP1;P2;durP2;ratioP2
72761;SDS011;60886;55.034;73.150;2022-12-10T00:01:34;9.48;;;2.80;;
72761;SDS011;60886;55.034;73.150;2022-12-10T00:04:01;11.73;;;3.22;;
72761;SDS011;60886;55.034;73.150;2022-12-10T00:06:30;10.43;;;3.35;;
72761;SDS011;60886;55.034;73.150;2022-12-10T00:09:08;14.93;;;3.72;;
72761;SDS011;60886;55.034;73.150;2022-12-10T00:11:45;9.30;;;3.00;;
72761;SDS011;60886;55.034;73.150;2022-12-10T00:14:12;13.15;;;2.72;;
72761;SDS011;60886;55.034;73.150;2022-12-10T00:16:39;11.27;;;3.58;;
72761;SDS011;60886;55.034;73.150;2022-12-10T00:19:06;9.98;;;2.95;;
72761;SDS011;60886;55.034;73.150;2022-12-10T00:21:33;7.90;;;3.28;;
72761;SDS011;60886;55.034;73.150;2022-12-10T00:24:05;14.57;;;4.03;;
72761;SDS011;60886;55.034;73.150;2022-12-10T00:26:33;14.70;;;3.95;;
72761;SDS011;60886;55.034;73.150;2022-12-10T00:29:02;17.58;;;3.95;;
72761;SDS011;60886;55.034;73.150;2022-12-10T00:31:31;15.55;;;3.95;;
72761;SDS011;60886;55.034;73.150;2022-12-10T00:34:00;14.95;;;3.90;;
72761;SDS011;60886;55.034;73.150;2022-12-10T00:36:35;17.47;;;5.30;;
72761;SDS011;60886;55.034;73.150;2022-12-10T00:39:04;12.40;;;3.95;;
72761;SDS011;60886;55.034;73.150;2022-12-10T00:41:31;14.50;;;4.07;;
72761;SDS011;60886;55.034;73.150;2022-12-10T00:43:57;15.13;;;4.55;;
72761;SDS011;60886;55.034;73.150;2022-12-10T00:46:29;13.88;;;4.43;;
72761;SDS011;60886;55.034;73.150;2022-12-10T00:48:55;15.60;;;4.60;;
72761;SDS011;60886;55.034;73.150;2022-12-10T00:51:23;10.65;;;3.20;;
72761;SDS011;60886;55.034;73.150;2022-12-10T00:53:56;12.60;;;3.25;;
72761;SDS011;60886;55.034;73.150;2022-12-10T00:56:25;13.90;;;3.95;;
72761;SDS011;60886;55.034;73.150;2022-12-10T00:58:53;11.90;;;4.55;;
72761;SDS011;60886;55.034;73.150;2022-12-10T01:01:21;20.10;;;5.53;;
72761;SDS011;60886;55.034;73.150;2022-12-10T01:03:49;19.48;;;4.90;;
72761;SDS011;60886;55.034;73.150;2022-12-10T01:06:21;17.17;;;4.65;;
72761;SDS011;60886;55.034;73.150;2022-12-10T01:08:50;13.15;;;4.13;;
72761;SDS011;60886;55.034;73.150;2022-12-10T01:11:18;13.68;;;4.57;;
72761;SDS011;60886;55.034;73.150;2022-12-10T01:13:45;8.90;;;2.67;;
72761;SDS011;60886;55.034;73.150;2022-12-10T01:16:19;23.38;;;3.92;;
72761;SDS011;60886;55.034;73.150;2022-12-10T01:18:52;15.20;;;3.88;;
72761;SDS011;60886;55.034;73.150;2022-12-10T01:21:30;16.48;;;4.55;;
72761;SDS011;60886;55.034;73.150;2022-12-10T01:23:57;10.40;;;3.40;;
72761;SDS011;60886;55.034;73.150;2022-12-10T01:26:26;9.77;;;2.93;;
72761;SDS011;60886;55.034;73.150;2022-12-10T01:28:54;10.35;;;3.08;;
72761;SDS011;60886;55.034;73.150;2022-12-10T01:31:22;17.88;;;4.75;;
72761;SDS011;60886;55.034;73.150;2022-12-10T01:33:50;17.67;;;4.22;;
72761;SDS011;60886;55.034;73.150;2022-12-10T01:36:19;15.30;;;3.75;;
72761;SDS011;60886;55.034;73.150;2022-12-10T01:38:53;10.43;;;3.70;;
72761;SDS011;60886;55.034;73.150;2022-12-10T01:41:21;13.32;;;3.40;;
72761;SDS011;60886;55.034;73.150;2022-12-10T01:46:30;14.25;;;3.17;;
72761;SDS011;60886;55.034;73.150;2022-12-10T01:48:59;10.68;;;3.45;;
72761;SDS011;60886;55.034;73.150;2022-12-10T01:51:29;11.57;;;2.97;;
72761;SDS011;60886;55.034;73.150;2022-12-10T01:53:58;10.43;;;3.03;;
72761;SDS011;60886;55.034;73.150;2022-12-10T01:56:31;7.53;;;2.38;;
72761;SDS011;60886;55.034;73.150;2022-12-10T01:59:01;11.57;;;3.65;;
72761;SDS011;60886;55.034;73.150;2022-12-10T02:01:31;10.02;;;3.30;;
72761;SDS011;60886;55.034;73.150;2022-12-10T02:13:08;16.02;;;4.13;;
72761;SDS011;60886;55.034;73.150;2022-12-10T02:15:46;12.13;;;3.83;;
72761;SDS011;60886;55.034;73.150;2022-12-10T02:18:26;12.37;;;3.53;;
72761;SDS011;60886;55.034;73.150;2022-12-10T02:21:03;12.80;;;3.45;;
72761;SDS011;60886;55.034;73.150;2022-12-10T02:23:53;17.55;;;4.15;;
72761;SDS011;60886;55.034;73.150;2022-12-10T02:26:24;11.30;;;3.95;;
72761;SDS011;60886;55.034;73.150;2022-12-10T02:31:48;11.40;;;3.37;;
72761;SDS011;60886;55.034;73.150;2022-12-10T02:34:25;10.38;;;2.70;;
72761;SDS011;60886;55.034;73.150;2022-12-10T02:36:56;11.57;;;3.30;;
72761;SDS011;60886;55.034;73.150;2022-12-10T02:39:37;11.98;;;3.85;;
72761;SDS011;60886;55.034;73.150;2022-12-10T02:42:07;8.70;;;2.88;;
72761;SDS011;60886;55.034;73.150;2022-12-10T02:44:42;16.77;;;4.97;;
72761;SDS011;60886;55.034;73.150;2022-12-10T02:47:12;12.07;;;4.22;;
72761;SDS011;60886;55.034;73.150;2022-12-10T02:49:43;13.07;;;4.18;;
72761;SDS011;60886;55.034;73.150;2022-12-10T02:52:23;8.48;;;2.78;;
72761;SDS011;60886;55.034;73.150;2022-12-10T02:54:52;13.35;;;4.07;;
72761;SDS011;60886;55.034;73.150;2022-12-10T02:57:36;9.17;;;3.53;;
72761;SDS011;60886;55.034;73.150;2022-12-10T03:00:16;9.02;;;3.15;;
72761;SDS011;60886;55.034;73.150;2022-12-10T03:08:31;10.63;;;3.42;;
72761;SDS011;60886;55.034;73.150;2022-12-10T03:11:21;11.23;;;3.40;;
72761;SDS011;60886;55.034;73.150;2022-12-10T03:16:42;11.13;;;3.42;;
72761;SDS011;60886;55.034;73.150;2022-12-10T03:19:14;10.23;;;3.20;;
72761;SDS011;60886;55.034;73.150;2022-12-10T03:21:44;9.80;;;3.28;;
72761;SDS011;60886;55.034;73.150;2022-12-10T03:24:12;14.03;;;4.20;;
72761;SDS011;60886;55.034;73.150;2022-12-10T03:26:41;13.05;;;4.13;;
72761;SDS011;60886;55.034;73.150;2022-12-10T03:29:10;16.67;;;4.55;;
72761;SDS011;60886;55.034;73.150;2022-12-10T03:31:52;19.30;;;5.50;;
72761;SDS011;60886;55.034;73.150;2022-12-10T03:34:20;21.52;;;5.53;;
72761;SDS011;60886;55.034;73.150;2022-12-10T03:36:48;13.23;;;4.63;;
72761;SDS011;60886;55.034;73.150;2022-12-10T03:39:15;12.20;;;4.25;;
72761;SDS011;60886;55.034;73.150;2022-12-10T03:41:42;12.77;;;3.63;;
72761;SDS011;60886;55.034;73.150;2022-12-10T03:44:10;16.60;;;4.80;;
72761;SDS011;60886;55.034;73.150;2022-12-10T03:46:36;13.20;;;4.10;;
72761;SDS011;60886;55.034;73.150;2022-12-10T03:49:03;13.67;;;3.80;;
72761;SDS011;60886;55.034;73.150;2022-12-10T03:51:31;12.30;;;3.63;;
72761;SDS011;60886;55.034;73.150;2022-12-10T03:54:03;12.35;;;3.83;;
72761;SDS011;60886;55.034;73.150;2022-12-10T03:56:39;10.95;;;3.92;;
72761;SDS011;60886;55.034;73.150;2022-12-10T03:59:11;12.00;;;3.78;;
72761;SDS011;60886;55.034;73.150;2022-12-10T04:01:38;12.53;;;3.40;;
72761;SDS011;60886;55.034;73.150;2022-12-10T04:04:10;9.27;;;2.90;;
72761;SDS011;60886;55.034;73.150;2022-12-10T04:06:39;8.65;;;2.65;;
72761;SDS011;60886;55.034;73.150;2022-12-10T04:09:09;10.00;;;2.60;;
72761;SDS011;60886;55.034;73.150;2022-12-10T04:11:36;7.53;;;2.35;;
72761;SDS011;60886;55.034;73.150;2022-12-10T04:14:03;9.83;;;2.60;;
72761;SDS011;60886;55.034;73.150;2022-12-10T04:16:48;14.75;;;2.72;;
72761;SDS011;60886;55.034;73.150;2022-12-10T04:19:15;7.93;;;2.30;;
72761;SDS011;60886;55.034;73.150;2022-12-10T04:21:43;11.23;;;3.03;;
72761;SDS011;60886;55.034;73.150;2022-12-10T04:24:30;10.65;;;2.95;;
72761;SDS011;60886;55.034;73.150;2022-12-10T04:27:18;8.23;;;2.70;;
72761;SDS011;60886;55.034;73.150;2022-12-10T04:29:56;8.50;;;2.38;;
72761;SDS011;60886;55.034;73.150;2022-12-10T04:32:24;11.32;;;2.55;;
72761;SDS011;60886;55.034;73.150;2022-12-10T04:34:52;7.13;;;2.17;;
72761;SDS011;60886;55.034;73.150;2022-12-10T04:37:19;10.85;;;3.10;;
72761;SDS011;60886;55.034;73.150;2022-12-10T04:39:46;9.50;;;2.60;;
72761;SDS011;60886;55.034;73.150;2022-12-10T04:42:12;9.43;;;3.38;;
72761;SDS011;60886;55.034;73.150;2022-12-10T04:44:41;9.65;;;2.70;;
72761;SDS011;60886;55.034;73.150;2022-12-10T04:47:09;10.20;;;3.03;;
72761;SDS011;60886;55.034;73.150;2022-12-10T04:49:36;12.05;;;2.92;;
72761;SDS011;60886;55.034;73.150;2022-12-10T04:52:10;9.37;;;3.00;;
72761;SDS011;60886;55.034;73.150;2022-12-10T04:54:38;10.48;;;2.70;;
72761;SDS011;60886;55.034;73.150;2022-12-10T04:57:06;6.68;;;2.55;;
72761;SDS011;60886;55.034;73.150;2022-12-10T04:59:33;8.50;;;2.65;;
72761;SDS011;60886;55.034;73.150;2022-12-10T05:02:00;11.40;;;3.15;;
72761;SDS011;60886;55.034;73.150;2022-12-10T05:04:27;9.47;;;2.93;;
72761;SDS011;60886;55.034;73.150;2022-12-10T05:06:59;12.80;;;3.58;;
72761;SDS011;60886;55.034;73.150;2022-12-10T05:09:25;12.23;;;2.90;;
72761;SDS011;60886;55.034;73.150;2022-12-10T05:11:51;12.55;;;2.92;;
72761;SDS011;60886;55.034;73.150;2022-12-10T05:14:29;8.25;;;2.60;;
72761;SDS011;60886;55.034;73.150;2022-12-10T05:17:00;9.77;;;3.00;;
72761;SDS011;60886;55.034;73.150;2022-12-10T05:19:30;8.18;;;2.53;;
72761;SDS011;60886;55.034;73.150;2022-12-10T05:21:57;8.80;;;2.50;;
72761;SDS011;60886;55.034;73.150;2022-12-10T05:24:41;11.40;;;2.55;;
72761;SDS011;60886;55.034;73.150;2022-12-10T05:27:07;9.45;;;2.70;;
72761;SDS011;60886;55.034;73.150;2022-12-10T05:29:34;8.83;;;2.40;;
72761;SDS011;60886;55.034;73.150;2022-12-10T05:32:00;8.30;;;2.25;;
72761;SDS011;60886;55.034;73.150;2022-12-10T05:34:28;10.68;;;2.22;;
72761;SDS011;60886;55.034;73.150;2022-12-10T05:36:54;8.93;;;2.53;;
72761;SDS011;60886;55.034;73.150;2022-12-10T05:39:31;8.60;;;2.42;;
72761;SDS011;60886;55.034;73.150;2022-12-10T05:41:57;7.37;;;2.03;;
72761;SDS011;60886;55.034;73.150;2022-12-10T05:44:23;8.20;;;2.67;;
72761;SDS011;60886;55.034;73.150;2022-12-10T05:46:54;9.20;;;2.70;;
72761;SDS011;60886;55.034;73.150;2022-12-10T05:49:20;9.27;;;2.58;;
72761;SDS011;60886;55.034;73.150;2022-12-10T05:51:47;9.60;;;2.53;;
72761;SDS011;60886;55.034;73.150;2022-12-10T05:54:13;7.17;;;2.17;;
72761;SDS011;60886;55.034;73.150;2022-12-10T05:56:39;8.00;;;3.00;;
72761;SDS011;60886;55.034;73.150;2022-12-10T05:59:16;7.93;;;2.40;;
72761;SDS011;60886;55.034;73.150;2022-12-10T06:01:42;9.55;;;2.60;;
72761;SDS011;60886;55.034;73.150;2022-12-10T06:04:09;9.10;;;3.00;;
72761;SDS011;60886;55.034;73.150;2022-12-10T06:06:36;9.70;;;3.13;;
72761;SDS011;60886;55.034;73.150;2022-12-10T06:09:05;10.30;;;2.92;;
72761;SDS011;60886;55.034;73.150;2022-12-10T06:11:33;10.73;;;3.88;;
72761;SDS011;60886;55.034;73.150;2022-12-10T06:14:00;10.43;;;3.35;;
72761;SDS011;60886;55.034;73.150;2022-12-10T06:16:38;9.70;;;3.25;;
72761;SDS011;60886;55.034;73.150;2022-12-10T06:19:04;11.00;;;3.10;;
72761;SDS011;60886;55.034;73.150;2022-12-10T06:21:31;10.65;;;2.95;;
72761;SDS011;60886;55.034;73.150;2022-12-10T06:23:59;10.52;;;3.40;;
72761;SDS011;60886;55.034;73.150;2022-12-10T06:26:31;10.60;;;3.38;;
72761;SDS011;60886;55.034;73.150;2022-12-10T06:28:57;10.40;;;2.78;;
72761;SDS011;60886;55.034;73.150;2022-12-10T06:31:29;9.63;;;2.80;;
72761;SDS011;60886;55.034;73.150;2022-12-10T06:33:56;6.53;;;2.17;;
72761;SDS011;60886;55.034;73.150;2022-12-10T06:36:22;9.25;;;2.40;;
72761;SDS011;60886;55.034;73.150;2022-12-10T06:38:54;7.32;;;2.05;;
72761;SDS011;60886;55.034;73.150;2022-12-10T06:41:20;8.48;;;2.70;;
72761;SDS011;60886;55.034;73.150;2022-12-10T06:43:47;7.67;;;2.10;;
72761;SDS011;60886;55.034;73.150;2022-12-10T06:46:15;7.35;;;2.00;;
72761;SDS011;60886;55.034;73.150;2022-12-10T06:48:49;6.53;;;1.70;;
72761;SDS011;60886;55.034;73.150;2022-12-10T06:51:15;7.95;;;2.17;;
72761;SDS011;60886;55.034;73.150;2022-12-10T06:53:43;7.03;;;1.80;;
72761;SDS011;60886;55.034;73.150;2022-12-10T06:56:14;10.00;;;1.80;;
72761;SDS011;60886;55.034;73.150;2022-12-10T06:58:42;6.85;;;1.70;;
72761;SDS011;60886;55.034;73.150;2022-12-10T07:01:10;6.70;;;1.67;;
72761;SDS011;60886;55.034;73.150;2022-12-10T07:03:40;5.95;;;1.65;;
72761;SDS011;60886;55.034;73.150;2022-12-10T07:06:18;7.03;;;1.83;;
72761;SDS011;60886;55.034;73.150;2022-12-10T07:08:47;6.43;;;1.73;;
72761;SDS011;60886;55.034;73.150;2022-12-10T07:11:14;7.10;;;1.77;;
72761;SDS011;60886;55.034;73.150;2022-12-10T07:13:45;7.38;;;1.88;;
72761;SDS011;60886;55.034;73.150;2022-12-10T07:16:23;7.63;;;1.90;;
72761;SDS011;60886;55.034;73.150;2022-12-10T07:18:51;8.18;;;1.80;;
72761;SDS011;60886;55.034;73.150;2022-12-10T07:21:25;6.90;;;1.77;;
72761;SDS011;60886;55.034;73.150;2022-12-10T07:23:56;7.78;;;1.70;;
72761;SDS011;60886;55.034;73.150;2022-12-10T07:26:25;7.03;;;1.73;;
72761;SDS011;60886;55.034;73.150;2022-12-10T07:28:53;6.90;;;1.80;;
72761;SDS011;60886;55.034;73.150;2022-12-10T07:31:20;7.22;;;1.98;;
72761;SDS011;60886;55.034;73.150;2022-12-10T07:33:49;7.83;;;2.20;;
72761;SDS011;60886;55.034;73.150;2022-12-10T07:36:16;9.30;;;2.05;;
72761;SDS011;60886;55.034;73.150;2022-12-10T07:38:43;9.15;;;2.08;;
72761;SDS011;60886;55.034;73.150;2022-12-10T07:41:10;7.95;;;2.05;;
72761;SDS011;60886;55.034;73.150;2022-12-10T07:43:41;8.30;;;2.10;;
72761;SDS011;60886;55.034;73.150;2022-12-10T07:46:10;8.83;;;2.23;;
72761;SDS011;60886;55.034;73.150;2022-12-10T07:48:44;9.23;;;2.17;;
72761;SDS011;60886;55.034;73.150;2022-12-10T07:51:11;9.20;;;1.90;;
72761;SDS011;60886;55.034;73.150;2022-12-10T07:53:38;8.63;;;2.17;;
72761;SDS011;60886;55.034;73.150;2022-12-10T07:56:04;6.22;;;2.10;;
72761;SDS011;60886;55.034;73.150;2022-12-10T07:58:31;8.83;;;1.90;;
72761;SDS011;60886;55.034;73.150;2022-12-10T08:00:59;7.93;;;1.70;;
72761;SDS011;60886;55.034;73.150;2022-12-10T08:03:33;9.77;;;2.00;;
72761;SDS011;60886;55.034;73.150;2022-12-10T08:08:34;6.13;;;1.70;;
72761;SDS011;60886;55.034;73.150;2022-12-10T08:11:02;8.17;;;1.90;;
72761;SDS011;60886;55.034;73.150;2022-12-10T08:13:31;7.43;;;1.85;;
72761;SDS011;60886;55.034;73.150;2022-12-10T08:16:04;7.20;;;1.75;;
72761;SDS011;60886;55.034;73.150;2022-12-10T08:18:37;7.80;;;2.25;;
72761;SDS011;60886;55.034;73.150;2022-12-10T08:21:04;7.82;;;1.90;;
72761;SDS011;60886;55.034;73.150;2022-12-10T08:23:38;7.23;;;1.57;;
72761;SDS011;60886;55.034;73.150;2022-12-10T08:26:05;7.97;;;1.95;;
72761;SDS011;60886;55.034;73.150;2022-12-10T08:28:34;6.32;;;1.80;;
72761;SDS011;60886;55.034;73.150;2022-12-10T08:31:01;6.18;;;1.60;;
72761;SDS011;60886;55.034;73.150;2022-12-10T08:33:28;7.25;;;1.60;;
72761;SDS011;60886;55.034;73.150;2022-12-10T08:35:57;7.57;;;2.00;;
72761;SDS011;60886;55.034;73.150;2022-12-10T08:38:30;8.45;;;1.80;;
72761;SDS011;60886;55.034;73.150;2022-12-10T08:41:10;7.05;;;1.73;;
72761;SDS011;60886;55.034;73.150;2022-12-10T08:43:50;7.15;;;1.90;;
72761;SDS011;60886;55.034;73.150;2022-12-10T08:46:19;7.85;;;2.05;;
72761;SDS011;60886;55.034;73.150;2022-12-10T08:48:45;7.03;;;1.60;;
72761;SDS011;60886;55.034;73.150;2022-12-10T08:51:13;5.85;;;1.63;;
72761;SDS011;60886;55.034;73.150;2022-12-10T08:53:43;8.43;;;2.10;;
72761;SDS011;60886;55.034;73.150;2022-12-10T08:56:10;8.93;;;1.90;;
72761;SDS011;60886;55.034;73.150;2022-12-10T08:58:37;6.07;;;1.75;;
72761;SDS011;60886;55.034;73.150;2022-12-10T09:01:07;7.00;;;1.57;;
72761;SDS011;60886;55.034;73.150;2022-12-10T09:03:36;6.65;;;1.70;;
72761;SDS011;60886;55.034;73.150;2022-12-10T09:06:05;6.80;;;1.95;;
72761;SDS011;60886;55.034;73.150;2022-12-10T09:08:33;7.13;;;2.05;;
72761;SDS011;60886;55.034;73.150;2022-12-10T09:11:12;6.75;;;1.58;;
72761;SDS011;60886;55.034;73.150;2022-12-10T09:13:50;6.07;;;1.40;;
72761;SDS011;60886;55.034;73.150;2022-12-10T09:16:19;6.47;;;1.90;;
72761;SDS011;60886;55.034;73.150;2022-12-10T09:18:47;6.43;;;1.80;;
72761;SDS011;60886;55.034;73.150;2022-12-10T09:21:18;8.10;;;1.90;;
72761;SDS011;60886;55.034;73.150;2022-12-10T09:23:46;9.35;;;1.92;;
72761;SDS011;60886;55.034;73.150;2022-12-10T09:26:13;6.97;;;1.93;;
72761;SDS011;60886;55.034;73.150;2022-12-10T09:28:50;6.40;;;1.65;;
72761;SDS011;60886;55.034;73.150;2022-12-10T09:31:18;6.82;;;1.42;;
72761;SDS011;60886;55.034;73.150;2022-12-10T09:33:45;7.05;;;1.70;;
72761;SDS011;60886;55.034;73.150;2022-12-10T09:36:13;8.00;;;1.65;;
72761;SDS011;60886;55.034;73.150;2022-12-10T09:38:42;7.03;;;2.00;;
72761;SDS011;60886;55.034;73.150;2022-12-10T09:43:50;6.75;;;1.85;;
72761;SDS011;60886;55.034;73.150;2022-12-10T09:52:12;6.90;;;1.97;;
72761;SDS011;60886;55.034;73.150;2022-12-10T09:54:43;7.93;;;2.00;;
72761;SDS011;60886;55.034;73.150;2022-12-10T09:57:22;8.13;;;2.45;;
72761;SDS011;60886;55.034;73.150;2022-12-10T09:59:54;6.10;;;1.83;;
72761;SDS011;60886;55.034;73.150;2022-12-10T10:02:23;7.78;;;2.10;;
72761;SDS011;60886;55.034;73.150;2022-12-10T10:07:31;9.55;;;2.60;;
72761;SDS011;60886;55.034;73.150;2022-12-10T10:10:21;11.75;;;2.67;;
72761;SDS011;60886;55.034;73.150;2022-12-10T10:12:53;12.68;;;3.58;;
72761;SDS011;60886;55.034;73.150;2022-12-10T10:15:31;9.05;;;2.72;;
72761;SDS011;60886;55.034;73.150;2022-12-10T10:18:03;9.23;;;3.10;;
72761;SDS011;60886;55.034;73.150;2022-12-10T10:20:36;8.27;;;2.72;;
72761;SDS011;60886;55.034;73.150;2022-12-10T10:23:03;10.57;;;3.50;;
72761;SDS011;60886;55.034;73.150;2022-12-10T10:25:30;12.50;;;4.53;;
72761;SDS011;60886;55.034;73.150;2022-12-10T10:28:00;15.65;;;5.28;;
72761;SDS011;60886;55.034;73.150;2022-12-10T10:30:26;14.40;;;5.07;;
72761;SDS011;60886;55.034;73.150;2022-12-10T10:32:55;12.57;;;4.35;;
72761;SDS011;60886;55.034;73.150;2022-12-10T10:38:07;9.07;;;3.55;;
72761;SDS011;60886;55.034;73.150;2022-12-10T10:40:44;13.60;;;4.20;;
72761;SDS011;60886;55.034;73.150;2022-12-10T10:43:15;13.37;;;4.90;;
72761;SDS011;60886;55.034;73.150;2022-12-10T10:45:59;11.25;;;4.90;;
72761;SDS011;60886;55.034;73.150;2022-12-10T10:48:28;15.80;;;5.10;;
72761;SDS011;60886;55.034;73.150;2022-12-10T10:51:04;17.13;;;5.50;;
72761;SDS011;60886;55.034;73.150;2022-12-10T10:53:42;12.40;;;4.65;;
72761;SDS011;60886;55.034;73.150;2022-12-10T10:56:15;12.87;;;4.57;;
72761;SDS011;60886;55.034;73.150;2022-12-10T10:58:56;11.52;;;3.47;;
72761;SDS011;60886;55.034;73.150;2022-12-10T11:01:26;9.60;;;3.72;;
72761;SDS011;60886;55.034;73.150;2022-12-10T11:04:17;10.23;;;3.42;;
72761;SDS011;60886;55.034;73.150;2022-12-10T11:07:00;10.35;;;3.60;;
72761;SDS011;60886;55.034;73.150;2022-12-10T11:09:29;10.43;;;3.47;;
72761;SDS011;60886;55.034;73.150;2022-12-10T11:12:00;9.23;;;3.15;;
72761;SDS011;60886;55.034;73.150;2022-12-10T11:14:38;8.32;;;2.97;;
72761;SDS011;60886;55.034;73.150;2022-12-10T11:19:36;9.75;;;3.90;;
72761;SDS011;60886;55.034;73.150;2022-12-10T11:22:19;10.47;;;3.50;;
72761;SDS011;60886;55.034;73.150;2022-12-10T11:24:51;10.93;;;3.47;;
72761;SDS011;60886;55.034;73.150;2022-12-10T11:27:21;10.35;;;3.90;;
72761;SDS011;60886;55.034;73.150;2022-12-10T11:38:56;10.43;;;4.10;;
72761;SDS011;60886;55.034;73.150;2022-12-10T11:41:55;14.15;;;4.55;;
72761;SDS011;60886;55.034;73.150;2022-12-10T11:53:18;33.78;;;13.60;;
72761;SDS011;60886;55.034;73.150;2022-12-10T12:01:24;19.30;;;7.20;;
72761;SDS011;60886;55.034;73.150;2022-12-10T12:04:12;18.20;;;6.50;;
72761;SDS011;60886;55.034;73.150;2022-12-10T12:12:39;14.68;;;4.38;;
72761;SDS011;60886;55.034;73.150;2022-12-10T12:17:50;14.07;;;4.27;;
72761;SDS011;60886;55.034;73.150;2022-12-10T12:26:05;10.88;;;2.95;;
72761;SDS011;60886;55.034;73.150;2022-12-10T12:32:20;9.33;;;3.27;;
72761;SDS011;60886;55.034;73.150;2022-12-10T12:35:11;19.15;;;3.85;;
72761;SDS011;60886;55.034;73.150;2022-12-10T12:37:59;13.27;;;3.65;;
72761;SDS011;60886;55.034;73.150;2022-12-10T12:40:34;10.02;;;3.33;;
72761;SDS011;60886;55.034;73.150;2022-12-10T12:43:31;14.02;;;3.80;;
72761;SDS011;60886;55.034;73.150;2022-12-10T12:46:02;11.40;;;3.60;;
72761;SDS011;60886;55.034;73.150;2022-12-10T12:51:37;10.18;;;2.70;;
72761;SDS011;60886;55.034;73.150;2022-12-10T12:54:08;9.07;;;2.75;;
72761;SDS011;60886;55.034;73.150;2022-12-10T12:56:53;11.38;;;2.92;;
72761;SDS011;60886;55.034;73.150;2022-12-10T12:59:43;9.83;;;2.80;;
72761;SDS011;60886;55.034;73.150;2022-12-10T13:05:32;11.13;;;3.53;;
72761;SDS011;60886;55.034;73.150;2022-12-10T13:10:58;14.30;;;4.20;;
72761;SDS011;60886;55.034;73.150;2022-12-10T13:24:21;7.65;;;1.60;;
72761;SDS011;60886;55.034;73.150;2022-12-10T13:40:27;7.67;;;1.60;;
72761;SDS011;60886;55.034;73.150;2022-12-10T13:46:21;7.60;;;1.90;;
72761;SDS011;60886;55.034;73.150;2022-12-10T13:48:53;7.65;;;1.75;;
72761;SDS011;60886;55.034;73.150;2022-12-10T13:54:01;7.37;;;2.00;;
72761;SDS011;60886;55.034;73.150;2022-12-10T13:56:41;7.53;;;1.92;;
72761;SDS011;60886;55.034;73.150;2022-12-10T13:59:22;8.70;;;1.70;;
72761;SDS011;60886;55.034;73.150;2022-12-10T14:07:59;10.90;;;3.00;;
72761;SDS011;60886;55.034;73.150;2022-12-10T14:10:37;9.98;;;2.80;;
72761;SDS011;60886;55.034;73.150;2022-12-10T14:13:15;7.47;;;2.03;;
72761;SDS011;60886;55.034;73.150;2022-12-10T14:15:47;9.13;;;2.17;;
72761;SDS011;60886;55.034;73.150;2022-12-10T14:18:20;7.97;;;1.95;;
72761;SDS011;60886;55.034;73.150;2022-12-10T14:20:50;18.17;;;8.23;;
72761;SDS011;60886;55.034;73.150;2022-12-10T14:26:11;8.30;;;2.20;;
72761;SDS011;60886;55.034;73.150;2022-12-10T14:28:55;9.00;;;2.30;;
72761;SDS011;60886;55.034;73.150;2022-12-10T14:31:48;13.13;;;3.83;;
72761;SDS011;60886;55.034;73.150;2022-12-10T14:34:22;15.13;;;3.10;;
72761;SDS011;60886;55.034;73.150;2022-12-10T14:36:53;9.90;;;2.95;;
72761;SDS011;60886;55.034;73.150;2022-12-10T14:39:34;7.18;;;2.17;;
72761;SDS011;60886;55.034;73.150;2022-12-10T14:42:05;8.85;;;2.63;;
72761;SDS011;60886;55.034;73.150;2022-12-10T14:44:34;8.02;;;2.40;;
72761;SDS011;60886;55.034;73.150;2022-12-10T14:47:15;9.00;;;2.70;;
72761;SDS011;60886;55.034;73.150;2022-12-10T14:49:54;8.32;;;2.25;;
72761;SDS011;60886;55.034;73.150;2022-12-10T14:52:25;7.80;;;2.50;;
72761;SDS011;60886;55.034;73.150;2022-12-10T14:55:13;7.93;;;2.38;;
72761;SDS011;60886;55.034;73.150;2022-12-10T14:57:42;11.20;;;2.67;;
72761;SDS011;60886;55.034;73.150;2022-12-10T15:00:19;9.53;;;3.10;;
72761;SDS011;60886;55.034;73.150;2022-12-10T15:03:00;8.57;;;2.60;;
72761;SDS011;60886;55.034;73.150;2022-12-10T15:05:32;8.27;;;2.70;;
72761;SDS011;60886;55.034;73.150;2022-12-10T15:08:02;9.57;;;2.83;;
72761;SDS011;60886;55.034;73.150;2022-12-10T15:10:37;8.88;;;2.42;;
72761;SDS011;60886;55.034;73.150;2022-12-10T15:13:06;9.23;;;2.47;;
72761;SDS011;60886;55.034;73.150;2022-12-10T15:15:37;9.13;;;2.58;;
72761;SDS011;60886;55.034;73.150;2022-12-10T15:21:10;8.65;;;2.72;;
72761;SDS011;60886;55.034;73.150;2022-12-10T15:23:47;7.05;;;1.92;;
72761;SDS011;60886;55.034;73.150;2022-12-10T15:28:50;10.43;;;2.70;;
72761;SDS011;60886;55.034;73.150;2022-12-10T15:34:05;10.23;;;2.70;;
72761;SDS011;60886;55.034;73.150;2022-12-10T15:36:37;10.70;;;2.42;;
72761;SDS011;60886;55.034;73.150;2022-12-10T15:39:24;7.73;;;2.50;;
72761;SDS011;60886;55.034;73.150;2022-12-10T15:44:31;9.43;;;2.95;;
72761;SDS011;60886;55.034;73.150;2022-12-10T15:47:14;8.85;;;2.58;;
72761;SDS011;60886;55.034;73.150;2022-12-10T15:49:44;8.52;;;2.55;;
72761;SDS011;60886;55.034;73.150;2022-12-10T15:52:15;11.20;;;3.10;;
72761;SDS011;60886;55.034;73.150;2022-12-10T15:54:44;8.73;;;2.65;;
72761;SDS011;60886;55.034;73.150;2022-12-10T15:57:26;9.68;;;2.63;;
72761;SDS011;60886;55.034;73.150;2022-12-10T15:59:55;8.32;;;2.53;;
72761;SDS011;60886;55.034;73.150;2022-12-10T16:05:15;8.77;;;2.13;;
72761;SDS011;60886;55.034;73.150;2022-12-10T16:07:50;8.65;;;2.70;;
72761;SDS011;60886;55.034;73.150;2022-12-10T16:10:19;7.60;;;2.70;;
72761;SDS011;60886;55.034;73.150;2022-12-10T16:12:48;9.88;;;2.50;;
72761;SDS011;60886;55.034;73.150;2022-12-10T16:15:27;8.95;;;2.47;;
72761;SDS011;60886;55.034;73.150;2022-12-10T16:17:57;9.93;;;2.23;;
72761;SDS011;60886;55.034;73.150;2022-12-10T16:20:24;9.45;;;2.85;;
72761;SDS011;60886;55.034;73.150;2022-12-10T16:22:56;9.55;;;2.83;;
72761;SDS011;60886;55.034;73.150;2022-12-10T16:25:24;9.38;;;3.00;;
72761;SDS011;60886;55.034;73.150;2022-12-10T16:27:52;11.35;;;2.95;;
72761;SDS011;60886;55.034;73.150;2022-12-10T16:30:37;11.60;;;4.07;;
72761;SDS011;60886;55.034;73.150;2022-12-10T16:33:06;10.93;;;3.50;;
72761;SDS011;60886;55.034;73.150;2022-12-10T16:35:35;12.05;;;3.40;;
72761;SDS011;60886;55.034;73.150;2022-12-10T16:38:01;11.18;;;3.42;;
72761;SDS011;60886;55.034;73.150;2022-12-10T16:40:28;11.23;;;3.75;;
72761;SDS011;60886;55.034;73.150;2022-12-10T16:42:56;11.27;;;3.40;;
72761;SDS011;60886;55.034;73.150;2022-12-10T16:45:36;11.35;;;3.45;;
72761;SDS011;60886;55.034;73.150;2022-12-10T16:48:14;13.50;;;3.67;;
72761;SDS011;60886;55.034;73.150;2022-12-10T16:50:41;8.75;;;3.05;;
72761;SDS011;60886;55.034;73.150;2022-12-10T16:53:16;8.27;;;3.38;;
72761;SDS011;60886;55.034;73.150;2022-12-10T16:55:45;8.80;;;3.20;;
72761;SDS011;60886;55.034;73.150;2022-12-10T16:58:17;10.27;;;3.50;;
72761;SDS011;60886;55.034;73.150;2022-12-10T17:00:44;9.40;;;3.33;;
72761;SDS011;60886;55.034;73.150;2022-12-10T17:03:13;10.57;;;3.65;;
72761;SDS011;60886;55.034;73.150;2022-12-10T17:05:50;13.27;;;4.60;;
72761;SDS011;60886;55.034;73.150;2022-12-10T17:08:22;11.80;;;3.83;;
72761;SDS011;60886;55.034;73.150;2022-12-10T17:10:49;11.00;;;3.53;;
72761;SDS011;60886;55.034;73.150;2022-12-10T17:13:34;15.30;;;3.78;;
72761;SDS011;60886;55.034;73.150;2022-12-10T17:16:03;13.18;;;3.92;;
72761;SDS011;60886;55.034;73.150;2022-12-10T17:18:30;10.60;;;3.13;;
72761;SDS011;60886;55.034;73.150;2022-12-10T17:21:09;8.60;;;3.10;;